Amga, Russia
Current Conditions -  °F | °C
As of 11:30 AM on Thursday 23 Oct 2014 (Local Time) from UEEE Reporting Station
Haze Haze  
Wind Chill:   Ceiling: 20000
Heat Index:   Visibility: 1.1mi
Dew Point: -4°   Wind: 0mph
Humidity: 85%   Direction: NA
Pressure: 29.53"   Gusts: NA
Location:  60.9°N, 131.96°E
Report Text: UEEE 230230Z 00000MPS 1800 BR SCT002 BKN200 M18/M20 Q1000 NOSIGRMK QBB070 QFE741 23490150
Loading
Personal Weather Stations






























Interactive Weather Map
Tropical Storm Tracking
New forecast layout! Learn more

10-Day Weather Forecast

Advertisements
Track Severe Weather on mobile